Time;durP1;ratioP1;P1;durP2;ratioP2;P2;SDS_P1;SDS_P2;PMS_P1;PMS_P2;Temp;Humidity;BMP_temperature;BMP_pressure;BME280_temperature;BME280_humidity;BME280_pressure;Samples;Min_cycle;Max_cycle;Signal;HPM_P1;HPM_P2
2023/03/18 00:01:39;;;;;;;7.97;6.00;;;;;;;;;;5064673;28;20661;-52
2023/03/18 00:04:06;;;;;;;7.03;5.37;;;;;;;;;;5062924;28;20243;-52
2023/03/18 00:06:32;;;;;;;8.13;5.90;;;;;;;;;;5064817;28;20250;-55
2023/03/18 00:08:58;;;;;;;8.13;5.53;;;;;;;;;;5067133;28;20246;-52
2023/03/18 00:11:26;;;;;;;6.80;5.97;;;;;;;;;;5063836;28;20231;-51
2023/03/18 00:13:53;;;;;;;8.50;5.83;;;;;;;;;;5074392;28;20223;-52
2023/03/18 00:16:20;;;;;;;7.53;6.53;;;;;;;;;;5084634;28;20227;-55
2023/03/18 00:18:47;;;;;;;6.30;5.60;;;;;;;;;;5086842;28;20231;-52
2023/03/18 00:21:15;;;;;;;5.73;4.57;;;;;;;;;;5080973;28;20243;-52
2023/03/18 00:23:42;;;;;;;7.60;6.33;;;;;;;;;;5065741;28;20775;-52
2023/03/18 00:26:09;;;;;;;6.73;5.10;;;;;;;;;;5066617;28;20227;-51
2023/03/18 00:28:36;;;;;;;7.20;5.20;;;;;;;;;;5067693;28;20923;-52
2023/03/18 00:31:03;;;;;;;7.03;5.53;;;;;;;;;;5063501;28;20231;-51
2023/03/18 00:33:30;;;;;;;5.67;4.73;;;;;;;;;;5063488;28;20305;-52
2023/03/18 00:35:58;;;;;;;7.63;5.60;;;;;;;;;;5065086;28;20235;-53
2023/03/18 00:38:25;;;;;;;5.53;4.97;;;;;;;;;;5064563;28;20322;-52
2023/03/18 00:41:00;;;;;;;8.93;5.57;;;;;;;;;;5064924;28;20733;-52
2023/03/18 00:43:28;;;;;;;6.63;5.00;;;;;;;;;;5064831;28;20265;-51
2023/03/18 00:45:55;;;;;;;8.03;5.97;;;;;;;;;;5063725;28;20239;-52
2023/03/18 00:48:22;;;;;;;8.23;5.23;;;;;;;;;;5064363;28;20314;-51
2023/03/18 00:50:49;;;;;;;9.23;5.80;;;;;;;;;;5063603;28;20232;-52
2023/03/18 00:53:20;;;;;;;9.50;5.83;;;;;;;;;;5065543;28;20718;-52
2023/03/18 00:55:46;;;;;;;5.33;4.60;;;;;;;;;;5052769;28;20227;-53
2023/03/18 00:58:13;;;;;;;10.77;5.20;;;;;;;;;;5074294;28;20288;-53
2023/03/18 01:00:40;;;;;;;7.57;4.97;;;;;;;;;;5077748;28;20238;-51
2023/03/18 01:03:07;;;;;;;8.97;5.23;;;;;;;;;;5079941;28;20230;-51
2023/03/18 01:05:34;;;;;;;9.07;5.83;;;;;;;;;;5082733;28;20230;-52
2023/03/18 01:08:01;;;;;;;8.63;5.37;;;;;;;;;;5081749;28;20233;-52
2023/03/18 01:10:30;;;;;;;8.30;5.53;;;;;;;;;;5076563;28;20251;-51
2023/03/18 01:12:57;;;;;;;5.77;5.27;;;;;;;;;;5055641;28;20378;-51
2023/03/18 01:15:24;;;;;;;8.27;5.47;;;;;;;;;;5064382;28;20233;-53
2023/03/18 01:17:51;;;;;;;8.90;5.73;;;;;;;;;;5064383;28;20239;-51
2023/03/18 01:20:19;;;;;;;5.53;4.97;;;;;;;;;;5070437;28;20223;-56
2023/03/18 01:22:46;;;;;;;7.63;5.30;;;;;;;;;;5067797;28;20327;-52
2023/03/18 01:25:15;;;;;;;8.27;5.77;;;;;;;;;;5069963;28;20242;-52
2023/03/18 01:27:43;;;;;;;9.40;4.90;;;;;;;;;;5068824;28;20254;-52
2023/03/18 01:30:12;;;;;;;7.03;5.30;;;;;;;;;;5078035;28;20226;-52
2023/03/18 01:32:38;;;;;;;9.63;5.40;;;;;;;;;;5072056;28;20245;-51
2023/03/18 01:35:05;;;;;;;9.17;6.23;;;;;;;;;;5076253;28;20720;-51
2023/03/18 01:37:32;;;;;;;7.93;5.73;;;;;;;;;;5067532;28;20227;-52
2023/03/18 01:39:59;;;;;;;6.80;4.53;;;;;;;;;;5067635;28;20652;-51
2023/03/18 01:42:26;;;;;;;8.07;5.63;;;;;;;;;;5077992;28;20235;-52
2023/03/18 01:45:08;;;;;;;7.67;5.10;;;;;;;;;;5082462;28;20234;-54
2023/03/18 01:47:36;;;;;;;5.60;5.00;;;;;;;;;;5057728;28;20223;-52
2023/03/18 01:50:03;;;;;;;8.87;5.50;;;;;;;;;;5067752;28;20705;-50
2023/03/18 01:52:32;;;;;;;10.30;5.37;;;;;;;;;;5076437;28;20234;-52
2023/03/18 01:55:00;;;;;;;6.70;5.47;;;;;;;;;;5078053;28;20245;-51
2023/03/18 01:57:27;;;;;;;8.50;5.13;;;;;;;;;;5075380;28;20617;-52
2023/03/18 01:59:56;;;;;;;8.43;5.40;;;;;;;;;;5073161;28;20230;-52
2023/03/18 02:02:24;;;;;;;7.37;4.60;;;;;;;;;;5077716;28;20234;-52
2023/03/18 02:04:52;;;;;;;7.93;5.57;;;;;;;;;;5066856;28;20349;-52
2023/03/18 02:07:20;;;;;;;7.47;4.83;;;;;;;;;;5081422;28;20238;-52
2023/03/18 02:09:48;;;;;;;7.50;5.70;;;;;;;;;;5072717;28;20270;-52
2023/03/18 02:12:16;;;;;;;7.77;5.50;;;;;;;;;;5079494;28;21409;-52
2023/03/18 02:14:44;;;;;;;5.77;4.70;;;;;;;;;;5057883;28;20235;-52
2023/03/18 02:17:12;;;;;;;8.57;5.20;;;;;;;;;;5057105;28;20556;-55
2023/03/18 02:19:45;;;;;;;6.83;5.20;;;;;;;;;;5056572;28;20239;-52
2023/03/18 02:22:18;;;;;;;9.37;5.00;;;;;;;;;;5067004;28;20526;-51
2023/03/18 02:24:47;;;;;;;9.00;5.53;;;;;;;;;;5079447;28;20242;-52
2023/03/18 02:27:19;;;;;;;6.10;5.27;;;;;;;;;;5058735;28;20931;-52
2023/03/18 02:29:46;;;;;;;6.67;5.87;;;;;;;;;;5048566;28;20710;-51
2023/03/18 02:32:14;;;;;;;7.47;5.23;;;;;;;;;;5048216;28;20231;-51
2023/03/18 02:34:42;;;;;;;6.43;5.33;;;;;;;;;;5052836;28;20342;-52
2023/03/18 02:37:08;;;;;;;6.10;4.77;;;;;;;;;;5057400;28;20239;-51
2023/03/18 02:39:35;;;;;;;8.33;5.33;;;;;;;;;;5054891;28;20695;-50
2023/03/18 02:42:03;;;;;;;6.43;4.83;;;;;;;;;;5059063;28;20239;-52
2023/03/18 02:44:31;;;;;;;6.90;4.93;;;;;;;;;;5067650;28;20630;-52
2023/03/18 02:46:59;;;;;;;6.93;5.33;;;;;;;;;;5050990;28;20267;-51
2023/03/18 02:49:27;;;;;;;9.77;4.77;;;;;;;;;;5050174;28;20227;-52
2023/03/18 02:51:55;;;;;;;15.33;6.10;;;;;;;;;;5061981;28;20328;-51
2023/03/18 02:54:22;;;;;;;6.43;4.37;;;;;;;;;;5052641;28;20231;-53
2023/03/18 02:56:50;;;;;;;5.37;4.23;;;;;;;;;;5052501;28;20618;-52
2023/03/18 02:59:17;;;;;;;5.57;4.70;;;;;;;;;;5060031;28;20318;-52
2023/03/18 03:01:46;;;;;;;7.27;4.80;;;;;;;;;;5053449;28;20259;-52
2023/03/18 03:04:13;;;;;;;6.80;4.93;;;;;;;;;;5053197;28;20263;-51
2023/03/18 03:06:41;;;;;;;6.20;4.60;;;;;;;;;;5056086;28;20231;-51
2023/03/18 03:09:08;;;;;;;8.07;5.30;;;;;;;;;;5053122;28;20306;-51
2023/03/18 03:11:35;;;;;;;7.23;5.10;;;;;;;;;;5057257;28;20281;-50
2023/03/18 03:14:02;;;;;;;9.67;5.40;;;;;;;;;;5052894;28;20261;-52
2023/03/18 03:16:29;;;;;;;6.20;4.13;;;;;;;;;;5064751;28;20235;-51
2023/03/18 03:18:57;;;;;;;9.13;5.10;;;;;;;;;;5057687;28;20251;-53
2023/03/18 03:21:24;;;;;;;6.17;4.53;;;;;;;;;;5047552;28;20242;-53
2023/03/18 03:23:51;;;;;;;8.93;6.07;;;;;;;;;;5051582;28;20248;-52
2023/03/18 03:26:18;;;;;;;7.97;4.90;;;;;;;;;;5059479;28;20325;-51
2023/03/18 03:28:44;;;;;;;6.97;4.13;;;;;;;;;;5048524;28;20232;-51
2023/03/18 03:31:11;;;;;;;10.70;5.73;;;;;;;;;;5053864;28;20251;-51
2023/03/18 03:33:40;;;;;;;8.20;4.80;;;;;;;;;;5061226;28;21184;-51
2023/03/18 03:36:09;;;;;;;7.47;5.87;;;;;;;;;;5048628;28;20271;-51
2023/03/18 03:38:36;;;;;;;8.43;5.23;;;;;;;;;;5062282;28;20420;-52
2023/03/18 03:41:04;;;;;;;9.47;5.07;;;;;;;;;;5059925;28;20258;-52
2023/03/18 03:43:30;;;;;;;7.50;4.70;;;;;;;;;;5058956;28;20286;-52
2023/03/18 03:45:57;;;;;;;5.80;4.33;;;;;;;;;;5053331;28;20309;-51
2023/03/18 03:48:24;;;;;;;8.60;5.43;;;;;;;;;;5062673;28;20659;-51
2023/03/18 03:50:50;;;;;;;6.27;4.33;;;;;;;;;;5053894;28;20365;-53
2023/03/18 03:53:19;;;;;;;7.00;4.23;;;;;;;;;;5048634;28;20232;-52
2023/03/18 03:55:46;;;;;;;7.37;4.63;;;;;;;;;;5050239;28;20235;-51
2023/03/18 03:58:13;;;;;;;5.40;4.17;;;;;;;;;;5058153;28;20230;-52
2023/03/18 04:00:40;;;;;;;5.23;3.87;;;;;;;;;;5062652;28;20238;-50
2023/03/18 04:03:07;;;;;;;6.33;4.60;;;;;;;;;;5063670;28;20691;-52
2023/03/18 04:05:33;;;;;;;6.50;4.90;;;;;;;;;;5063137;28;20740;-52
2023/03/18 04:08:00;;;;;;;9.03;5.20;;;;;;;;;;5062004;28;20318;-51
2023/03/18 04:10:29;;;;;;;6.57;4.63;;;;;;;;;;5061818;28;20301;-53
2023/03/18 04:12:55;;;;;;;5.13;4.40;;;;;;;;;;5056555;28;20239;-53
2023/03/18 04:15:22;;;;;;;11.77;5.27;;;;;;;;;;5053439;28;20240;-52
2023/03/18 04:17:49;;;;;;;6.73;4.73;;;;;;;;;;5047045;28;20710;-51
2023/03/18 04:20:16;;;;;;;6.53;5.10;;;;;;;;;;5052843;28;20261;-52
2023/03/18 04:22:43;;;;;;;7.73;5.87;;;;;;;;;;5054097;28;20625;-52
2023/03/18 04:25:10;;;;;;;5.77;4.73;;;;;;;;;;5052959;28;20597;-52
2023/03/18 04:27:39;;;;;;;8.30;4.93;;;;;;;;;;5045372;28;20581;-50
2023/03/18 04:30:06;;;;;;;7.40;4.83;;;;;;;;;;5060177;28;20479;-52
2023/03/18 04:32:33;;;;;;;7.07;4.20;;;;;;;;;;5059143;28;20227;-52
2023/03/18 04:35:00;;;;;;;6.70;4.87;;;;;;;;;;5048712;28;20231;-51
2023/03/18 04:37:27;;;;;;;7.17;5.20;;;;;;;;;;5055309;28;20231;-52
2023/03/18 04:39:54;;;;;;;9.53;5.70;;;;;;;;;;5060312;28;20238;-50
2023/03/18 04:42:20;;;;;;;6.03;5.13;;;;;;;;;;5049542;28;20311;-51
2023/03/18 04:44:49;;;;;;;6.80;5.40;;;;;;;;;;5059022;28;20295;-52
2023/03/18 04:47:15;;;;;;;6.20;5.07;;;;;;;;;;5045090;28;20654;-53
2023/03/18 04:49:42;;;;;;;11.20;5.80;;;;;;;;;;5049340;28;20234;-54
2023/03/18 04:52:09;;;;;;;5.50;4.70;;;;;;;;;;5052366;28;20234;-51
2023/03/18 04:54:37;;;;;;;6.90;4.57;;;;;;;;;;5062747;28;20257;-52
2023/03/18 04:57:05;;;;;;;8.67;4.90;;;;;;;;;;5065253;28;20237;-53
2023/03/18 04:59:32;;;;;;;6.10;4.93;;;;;;;;;;5064947;28;20231;-51
2023/03/18 05:02:00;;;;;;;9.77;5.20;;;;;;;;;;5073545;28;20261;-51
2023/03/18 05:04:27;;;;;;;9.40;4.70;;;;;;;;;;5058668;28;20235;-53
2023/03/18 05:06:53;;;;;;;7.33;4.57;;;;;;;;;;5060368;28;20231;-52
2023/03/18 05:09:20;;;;;;;5.47;4.90;;;;;;;;;;5057054;28;20241;-51
2023/03/18 05:11:47;;;;;;;6.50;5.40;;;;;;;;;;5064767;28;20319;-51
2023/03/18 05:14:14;;;;;;;8.87;6.07;;;;;;;;;;5054885;28;20269;-51
2023/03/18 05:16:41;;;;;;;6.27;4.13;;;;;;;;;;5052199;28;20243;-52
2023/03/18 05:19:09;;;;;;;8.20;5.43;;;;;;;;;;5062631;28;20239;-51
2023/03/18 05:21:36;;;;;;;8.80;5.33;;;;;;;;;;5059433;28;20326;-51
2023/03/18 05:24:03;;;;;;;7.07;5.53;;;;;;;;;;5049286;28;20797;-51
2023/03/18 05:26:29;;;;;;;6.70;4.80;;;;;;;;;;5054342;28;20275;-52
2023/03/18 05:28:56;;;;;;;5.43;4.50;;;;;;;;;;5043883;28;20248;-51
2023/03/18 05:31:23;;;;;;;7.93;5.47;;;;;;;;;;5044777;28;20709;-52
2023/03/18 05:33:50;;;;;;;10.63;5.57;;;;;;;;;;5055685;28;20232;-52
2023/03/18 05:36:18;;;;;;;7.77;5.13;;;;;;;;;;5052119;28;20292;-52
2023/03/18 05:38:44;;;;;;;5.70;5.10;;;;;;;;;;5054921;28;20669;-51
2023/03/18 05:41:11;;;;;;;6.30;5.07;;;;;;;;;;5050349;28;20717;-53
2023/03/18 05:43:38;;;;;;;7.17;5.17;;;;;;;;;;5044091;28;20305;-54
2023/03/18 05:46:04;;;;;;;8.53;5.17;;;;;;;;;;5055377;28;20228;-52
2023/03/18 05:48:31;;;;;;;6.80;5.23;;;;;;;;;;5057127;28;20233;-52
2023/03/18 05:50:58;;;;;;;6.17;5.27;;;;;;;;;;5050757;28;20239;-52
2023/03/18 05:53:26;;;;;;;7.50;5.27;;;;;;;;;;5059011;28;20585;-52
2023/03/18 05:55:53;;;;;;;6.47;4.87;;;;;;;;;;5052325;28;20289;-51
2023/03/18 05:58:20;;;;;;;7.80;5.43;;;;;;;;;;5059122;28;20232;-51
2023/03/18 06:00:46;;;;;;;6.87;5.37;;;;;;;;;;5063308;28;20232;-52
2023/03/18 06:03:13;;;;;;;9.20;5.40;;;;;;;;;;5051072;28;20286;-52
2023/03/18 06:05:40;;;;;;;8.07;5.23;;;;;;;;;;5062007;28;20238;-51
2023/03/18 06:08:07;;;;;;;7.70;5.40;;;;;;;;;;5059710;28;20314;-51
2023/03/18 06:10:35;;;;;;;6.67;5.40;;;;;;;;;;5064524;28;20223;-51
2023/03/18 06:13:01;;;;;;;7.57;5.37;;;;;;;;;;5064021;28;20243;-52
2023/03/18 06:15:29;;;;;;;7.87;4.83;;;;;;;;;;5050143;28;20321;-52
2023/03/18 06:17:56;;;;;;;9.90;5.23;;;;;;;;;;5065635;28;20312;-52
2023/03/18 06:20:23;;;;;;;9.33;5.43;;;;;;;;;;5061634;28;20242;-51
2023/03/18 06:22:50;;;;;;;7.70;5.23;;;;;;;;;;5053419;28;20639;-52
2023/03/18 06:25:17;;;;;;;7.53;5.47;;;;;;;;;;5051234;28;20311;-52
2023/03/18 06:27:46;;;;;;;9.30;5.13;;;;;;;;;;5047534;28;20238;-52
2023/03/18 06:30:14;;;;;;;9.17;5.60;;;;;;;;;;5064737;28;20235;-52
2023/03/18 06:32:40;;;;;;;9.30;6.17;;;;;;;;;;5057130;28;20733;-52
2023/03/18 06:35:07;;;;;;;5.80;5.27;;;;;;;;;;5059948;28;20232;-51
2023/03/18 06:37:34;;;;;;;7.03;5.60;;;;;;;;;;5055412;28;20234;-51
2023/03/18 06:40:01;;;;;;;6.23;5.50;;;;;;;;;;5059284;28;20314;-52
2023/03/18 06:42:27;;;;;;;6.30;4.80;;;;;;;;;;5059476;28;20717;-51
2023/03/18 06:44:55;;;;;;;8.03;5.93;;;;;;;;;;5061737;28;20702;-53
2023/03/18 06:47:22;;;;;;;6.63;4.80;;;;;;;;;;5058618;28;20701;-53
2023/03/18 06:49:49;;;;;;;10.20;4.77;;;;;;;;;;5058063;28;20247;-54
2023/03/18 06:52:16;;;;;;;5.33;4.37;;;;;;;;;;5060684;28;20240;-59
2023/03/18 06:54:44;;;;;;;8.63;5.57;;;;;;;;;;5052955;28;20227;-59
2023/03/18 06:57:11;;;;;;;6.60;4.67;;;;;;;;;;5064680;28;20243;-51
2023/03/18 06:59:38;;;;;;;9.50;5.77;;;;;;;;;;5065875;28;20231;-51
2023/03/18 07:02:07;;;;;;;7.57;5.47;;;;;;;;;;5068715;28;20254;-50
2023/03/18 07:04:34;;;;;;;7.67;5.60;;;;;;;;;;5067901;28;20314;-51
2023/03/18 07:07:00;;;;;;;7.00;5.33;;;;;;;;;;5070338;28;20227;-52
2023/03/18 07:09:27;;;;;;;7.50;6.20;;;;;;;;;;5068429;28;20452;-52
2023/03/18 07:11:54;;;;;;;9.73;5.93;;;;;;;;;;5060253;28;20270;-52
2023/03/18 07:14:20;;;;;;;11.70;5.37;;;;;;;;;;5066071;28;20713;-53
2023/03/18 07:16:47;;;;;;;7.40;5.43;;;;;;;;;;5071690;28;20231;-51
2023/03/18 07:19:16;;;;;;;7.97;5.43;;;;;;;;;;5069524;28;20251;-51
2023/03/18 07:21:44;;;;;;;7.83;5.80;;;;;;;;;;5062845;28;20231;-52
2023/03/18 07:24:11;;;;;;;7.37;5.93;;;;;;;;;;5070174;28;20644;-53
2023/03/18 07:26:37;;;;;;;9.27;5.20;;;;;;;;;;5055625;28;20289;-51
2023/03/18 07:29:05;;;;;;;8.93;6.40;;;;;;;;;;5053963;28;20282;-55
2023/03/18 07:31:31;;;;;;;6.47;5.23;;;;;;;;;;5047534;28;20236;-52
2023/03/18 07:33:58;;;;;;;8.17;5.23;;;;;;;;;;5060017;28;20273;-52
2023/03/18 07:36:26;;;;;;;8.13;5.67;;;;;;;;;;5068791;28;20636;-52
2023/03/18 07:38:53;;;;;;;10.83;5.77;;;;;;;;;;5061959;28;20310;-51
2023/03/18 07:41:20;;;;;;;5.77;4.97;;;;;;;;;;5067770;28;20227;-52
2023/03/18 07:43:47;;;;;;;7.33;5.83;;;;;;;;;;5065584;28;20234;-51
2023/03/18 07:46:13;;;;;;;5.77;5.03;;;;;;;;;;5064908;28;20231;-52
2023/03/18 07:48:40;;;;;;;6.90;5.40;;;;;;;;;;5066060;28;20288;-53
2023/03/18 07:51:07;;;;;;;9.00;5.73;;;;;;;;;;5068982;28;20290;-52
2023/03/18 07:53:36;;;;;;;5.50;4.70;;;;;;;;;;5068281;28;20301;-50
2023/03/18 07:56:02;;;;;;;11.83;6.27;;;;;;;;;;5067558;28;20239;-52
2023/03/18 07:58:29;;;;;;;7.03;5.50;;;;;;;;;;5068052;28;20251;-52
2023/03/18 08:00:56;;;;;;;6.63;5.40;;;;;;;;;;5066913;28;20257;-59
2023/03/18 08:03:23;;;;;;;10.63;5.47;;;;;;;;;;5068610;28;20724;-52
2023/03/18 08:05:50;;;;;;;10.17;5.70;;;;;;;;;;5067395;28;20749;-53
2023/03/18 08:08:16;;;;;;;7.90;5.50;;;;;;;;;;5068254;28;20705;-51
2023/03/18 08:10:44;;;;;;;7.90;5.53;;;;;;;;;;5068952;28;20310;-51
2023/03/18 08:13:11;;;;;;;9.00;5.43;;;;;;;;;;5068749;28;20280;-51
2023/03/18 08:15:38;;;;;;;9.37;5.13;;;;;;;;;;5048125;28;20238;-52
2023/03/18 08:18:05;;;;;;;7.20;5.63;;;;;;;;;;5056439;28;20239;-52
2023/03/18 08:20:31;;;;;;;6.10;5.23;;;;;;;;;;5069541;28;20235;-57
2023/03/18 08:22:58;;;;;;;7.53;5.60;;;;;;;;;;5067571;28;20326;-54
2023/03/18 08:25:24;;;;;;;9.53;6.13;;;;;;;;;;5068314;28;20259;-52
2023/03/18 08:27:52;;;;;;;8.27;5.20;;;;;;;;;;5068026;28;20321;-52
2023/03/18 08:30:19;;;;;;;8.00;5.93;;;;;;;;;;5067727;28;20235;-53
2023/03/18 08:32:47;;;;;;;7.63;5.13;;;;;;;;;;5068973;28;20293;-52
2023/03/18 08:35:14;;;;;;;5.90;4.90;;;;;;;;;;5067606;28;20329;-53
2023/03/18 08:37:41;;;;;;;8.53;5.30;;;;;;;;;;5060026;28;20417;-52
2023/03/18 08:40:08;;;;;;;9.37;5.37;;;;;;;;;;5067733;28;20302;-51
2023/03/18 08:42:35;;;;;;;10.77;5.13;;;;;;;;;;5066232;28;20285;-52
2023/03/18 08:45:04;;;;;;;10.77;5.03;;;;;;;;;;5066906;28;20639;-53
2023/03/18 08:47:31;;;;;;;5.27;4.87;;;;;;;;;;5065642;28;20919;-53
2023/03/18 08:49:57;;;;;;;6.93;5.03;;;;;;;;;;5065056;28;20869;-51
2023/03/18 08:52:24;;;;;;;12.57;7.13;;;;;;;;;;5064461;28;20238;-53
2023/03/18 08:54:51;;;;;;;7.00;4.40;;;;;;;;;;5064262;28;20265;-52
2023/03/18 08:57:18;;;;;;;7.38;4.93;;;;;;;;;;5065009;28;20231;-51
2023/03/18 08:59:44;;;;;;;6.65;4.95;;;;;;;;;;5065611;28;20321;-51
2023/03/18 09:02:15;;;;;;;7.40;5.55;;;;;;;;;;5064236;28;20231;-52
2023/03/18 09:04:42;;;;;;;5.53;4.93;;;;;;;;;;5061466;28;20228;-52
2023/03/18 09:07:08;;;;;;;8.23;5.30;;;;;;;;;;5052473;28;21194;-52
2023/03/18 09:09:35;;;;;;;4.82;4.35;;;;;;;;;;5063700;28;20239;-51
2023/03/18 09:12:03;;;;;;;10.05;5.57;;;;;;;;;;5063808;28;20239;-51
2023/03/18 09:14:30;;;;;;;5.65;4.43;;;;;;;;;;5064513;28;20686;-51
2023/03/18 09:16:57;;;;;;;5.18;4.30;;;;;;;;;;5064106;28;20231;-52
2023/03/18 09:19:25;;;;;;;8.98;4.72;;;;;;;;;;5061875;28;20318;-52
2023/03/18 09:21:52;;;;;;;9.52;6.97;;;;;;;;;;5061343;28;20793;-52
2023/03/18 09:24:18;;;;;;;8.93;5.28;;;;;;;;;;5064954;28;20243;-52
2023/03/18 09:26:45;;;;;;;6.97;4.97;;;;;;;;;;5062110;28;20231;-52
2023/03/18 09:29:11;;;;;;;12.15;5.75;;;;;;;;;;5065334;28;20278;-53
2023/03/18 09:31:39;;;;;;;5.43;4.93;;;;;;;;;;5065892;28;20241;-52
2023/03/18 09:34:05;;;;;;;8.73;5.03;;;;;;;;;;5065010;28;20280;-52
2023/03/18 09:36:33;;;;;;;7.95;5.25;;;;;;;;;;5063853;28;20219;-51
2023/03/18 09:39:00;;;;;;;5.22;3.88;;;;;;;;;;5067767;28;20229;-52
2023/03/18 09:41:38;;;;;;;6.43;4.65;;;;;;;;;;5065148;28;20241;-51
2023/03/18 09:44:09;;;;;;;7.20;5.93;;;;;;;;;;5061896;28;20223;-51
2023/03/18 09:46:44;;;;;;;6.93;5.50;;;;;;;;;;5062480;28;20309;-53
2023/03/18 09:49:23;;;;;;;6.10;4.45;;;;;;;;;;5064450;28;20226;-52
2023/03/18 09:51:57;;;;;;;6.18;4.45;;;;;;;;;;5060120;28;20238;-51
2023/03/18 09:54:29;;;;;;;5.70;4.88;;;;;;;;;;5068377;28;20239;-52
2023/03/18 09:56:56;;;;;;;5.53;4.57;;;;;;;;;;5068482;28;20239;-52
2023/03/18 09:59:25;;;;;;;10.13;5.78;;;;;;;;;;5068395;28;20269;-52
2023/03/18 10:01:54;;;;;;;8.05;4.80;;;;;;;;;;5066968;28;20265;-52
2023/03/18 10:04:22;;;;;;;5.82;4.93;;;;;;;;;;5068037;28;20231;-53
2023/03/18 10:06:51;;;;;;;6.65;4.70;;;;;;;;;;5069318;28;20239;-52
2023/03/18 10:09:24;;;;;;;7.25;5.00;;;;;;;;;;5069205;28;20231;-52
2023/03/18 10:11:52;;;;;;;6.45;4.80;;;;;;;;;;5066969;28;20835;-52
2023/03/18 10:14:22;;;;;;;6.40;4.68;;;;;;;;;;5083764;28;20310;-51
2023/03/18 10:17:05;;;;;;;6.63;4.20;;;;;;;;;;5080373;28;20258;-52
2023/03/18 10:19:32;;;;;;;7.78;4.25;;;;;;;;;;5064201;28;20239;-51
2023/03/18 10:22:06;;;;;;;4.85;4.20;;;;;;;;;;5083432;28;20243;-52
2023/03/18 10:24:36;;;;;;;4.25;3.85;;;;;;;;;;5088738;28;20254;-58
2023/03/18 10:27:09;;;;;;;5.78;4.18;;;;;;;;;;5072346;28;20235;-51
2023/03/18 10:29:40;;;;;;;4.03;3.63;;;;;;;;;;5067218;28;20285;-53
2023/03/18 10:32:11;;;;;;;4.68;4.20;;;;;;;;;;5067776;28;20250;-52
2023/03/18 10:34:41;;;;;;;6.40;4.72;;;;;;;;;;5066189;28;20693;-52
2023/03/18 10:37:13;;;;;;;7.90;3.75;;;;;;;;;;5063038;28;20774;-51
2023/03/18 10:39:44;;;;;;;9.60;4.25;;;;;;;;;;5054526;28;20254;-51
2023/03/18 10:42:18;;;;;;;9.32;4.75;;;;;;;;;;5065328;28;20270;-52
2023/03/18 10:44:45;;;;;;;5.65;4.30;;;;;;;;;;5065283;28;20230;-51
2023/03/18 10:47:15;;;;;;;4.57;3.80;;;;;;;;;;5064985;28;20308;-53
2023/03/18 10:49:43;;;;;;;4.95;4.07;;;;;;;;;;5058009;28;20239;-51
2023/03/18 10:52:14;;;;;;;5.80;4.47;;;;;;;;;;5047437;28;20244;-52
2023/03/18 10:54:45;;;;;;;7.45;4.53;;;;;;;;;;5059923;28;20246;-52
2023/03/18 10:57:14;;;;;;;5.00;4.50;;;;;;;;;;5059210;28;20230;-51
2023/03/18 10:59:43;;;;;;;6.18;4.55;;;;;;;;;;5058057;28;20246;-52
2023/03/18 11:02:14;;;;;;;6.97;4.60;;;;;;;;;;5067315;28;20248;-51
2023/03/18 11:04:44;;;;;;;7.78;4.45;;;;;;;;;;5060754;28;20231;-52
2023/03/18 11:07:14;;;;;;;5.97;4.47;;;;;;;;;;5059627;28;20242;-52
2023/03/18 11:09:42;;;;;;;7.50;4.22;;;;;;;;;;5060853;28;20342;-52
2023/03/18 11:12:15;;;;;;;10.50;5.10;;;;;;;;;;5060961;28;20257;-52
2023/03/18 11:14:47;;;;;;;7.88;4.45;;;;;;;;;;5062154;28;20328;-53
2023/03/18 11:17:19;;;;;;;6.20;4.18;;;;;;;;;;5061024;28;20318;-52
2023/03/18 11:19:46;;;;;;;8.60;4.70;;;;;;;;;;5062639;28;20231;-54
2023/03/18 11:22:17;;;;;;;9.07;4.90;;;;;;;;;;5063587;28;20289;-52
2023/03/18 11:24:45;;;;;;;6.90;5.10;;;;;;;;;;5063071;28;20251;-52
2023/03/18 11:27:24;;;;;;;6.75;4.55;;;;;;;;;;5058958;28;20224;-50
2023/03/18 11:29:54;;;;;;;9.68;4.55;;;;;;;;;;5063291;28;20231;-52
2023/03/18 11:32:23;;;;;;;4.68;3.65;;;;;;;;;;5061995;28;20262;-52
2023/03/18 11:34:54;;;;;;;6.95;3.85;;;;;;;;;;5064565;28;20322;-53
2023/03/18 11:37:21;;;;;;;7.18;4.88;;;;;;;;;;5059139;28;20732;-51
2023/03/18 11:39:49;;;;;;;5.82;4.25;;;;;;;;;;5053635;28;20243;-52
2023/03/18 11:42:17;;;;;;;4.15;3.70;;;;;;;;;;5053987;28;20363;-51
2023/03/18 11:44:45;;;;;;;6.97;4.57;;;;;;;;;;5061795;28;20842;-51
2023/03/18 11:47:13;;;;;;;4.60;4.20;;;;;;;;;;5058649;28;20238;-51
2023/03/18 11:49:41;;;;;;;5.15;4.10;;;;;;;;;;5063717;28;20668;-52
2023/03/18 11:52:14;;;;;;;7.15;3.85;;;;;;;;;;5060933;28;20301;-51
2023/03/18 11:54:50;;;;;;;5.05;4.05;;;;;;;;;;5065789;28;20235;-52
2023/03/18 11:57:19;;;;;;;7.93;4.18;;;;;;;;;;5061463;28;20235;-53
2023/03/18 11:59:51;;;;;;;5.72;3.90;;;;;;;;;;5063602;28;20245;-52
2023/03/18 12:02:26;;;;;;;6.43;4.28;;;;;;;;;;5062163;28;20223;-51
2023/03/18 12:05:04;;;;;;;4.45;3.78;;;;;;;;;;5063523;28;20222;-52
2023/03/18 12:07:42;;;;;;;5.47;3.92;;;;;;;;;;5062307;28;20250;-51
2023/03/18 12:10:13;;;;;;;4.25;3.53;;;;;;;;;;5063466;28;20315;-51
2023/03/18 12:12:48;;;;;;;5.00;3.90;;;;;;;;;;5061377;28;20326;-50
2023/03/18 12:15:20;;;;;;;4.72;3.88;;;;;;;;;;5064698;28;20225;-52
2023/03/18 12:17:52;;;;;;;4.25;3.60;;;;;;;;;;5061531;28;20231;-52
2023/03/18 12:20:27;;;;;;;6.80;3.88;;;;;;;;;;5061674;28;20249;-52
2023/03/18 12:23:01;;;;;;;7.20;3.83;;;;;;;;;;5063083;28;20258;-53
2023/03/18 12:25:32;;;;;;;7.05;4.00;;;;;;;;;;5065177;28;20763;-52
2023/03/18 12:28:02;;;;;;;6.20;4.30;;;;;;;;;;5064723;28;20239;-52
2023/03/18 12:30:43;;;;;;;5.72;3.47;;;;;;;;;;5071294;28;20227;-52
2023/03/18 12:33:13;;;;;;;7.45;3.83;;;;;;;;;;5069223;27;20247;-52
2023/03/18 12:35:49;;;;;;;3.47;3.10;;;;;;;;;;5068680;28;20234;-51
2023/03/18 12:38:32;;;;;;;5.50;4.28;;;;;;;;;;5060445;28;20238;-51
2023/03/18 12:41:05;;;;;;;5.18;3.47;;;;;;;;;;5063280;28;20238;-51
2023/03/18 12:43:39;;;;;;;5.72;3.85;;;;;;;;;;5061028;28;20232;-50
2023/03/18 12:46:11;;;;;;;3.60;3.05;;;;;;;;;;5061081;28;20284;-51
2023/03/18 12:48:44;;;;;;;5.55;3.88;;;;;;;;;;5060356;28;20231;-52
2023/03/18 12:51:11;;;;;;;7.10;4.95;;;;;;;;;;5060336;28;21476;-51
2023/03/18 12:53:40;;;;;;;6.07;3.97;;;;;;;;;;5062496;28;20223;-52
2023/03/18 12:56:11;;;;;;;6.88;4.53;;;;;;;;;;5059882;28;20330;-51
2023/03/18 12:58:41;;;;;;;8.18;4.30;;;;;;;;;;5060077;28;20261;-51
2023/03/18 13:01:16;;;;;;;4.88;3.13;;;;;;;;;;5060329;28;20243;-53
2023/03/18 13:03:43;;;;;;;5.85;3.30;;;;;;;;;;5063999;28;20238;-51
2023/03/18 13:06:13;;;;;;;3.25;2.92;;;;;;;;;;5074152;28;20261;-51
2023/03/18 13:08:51;;;;;;;4.70;3.30;;;;;;;;;;5076736;28;20238;-52
2023/03/18 13:11:25;;;;;;;4.97;3.38;;;;;;;;;;5071703;28;20234;-50
2023/03/18 13:13:55;;;;;;;4.78;3.20;;;;;;;;;;5077627;28;20230;-52
2023/03/18 13:16:24;;;;;;;6.93;3.72;;;;;;;;;;5075482;28;20261;-52
2023/03/18 13:18:51;;;;;;;4.43;3.70;;;;;;;;;;5077336;28;20269;-52
2023/03/18 13:21:20;;;;;;;5.15;3.40;;;;;;;;;;5082464;28;20243;-52
2023/03/18 13:24:04;;;;;;;4.15;3.47;;;;;;;;;;5080478;28;20227;-52
2023/03/18 13:26:38;;;;;;;6.03;3.95;;;;;;;;;;5073495;28;20249;-52
2023/03/18 13:29:12;;;;;;;5.13;3.60;;;;;;;;;;5077679;28;20254;-51
2023/03/18 13:31:43;;;;;;;4.75;3.90;;;;;;;;;;5073531;28;20222;-53
2023/03/18 13:34:25;;;;;;;10.85;3.97;;;;;;;;;;5071370;28;20245;-50
2023/03/18 13:37:12;;;;;;;3.95;2.50;;;;;;;;;;5071885;28;20235;-56
2023/03/18 13:39:52;;;;;;;6.85;4.65;;;;;;;;;;5072652;28;20292;-50
2023/03/18 13:42:21;;;;;;;5.75;3.92;;;;;;;;;;5070668;28;20732;-50
2023/03/18 13:44:55;;;;;;;6.22;3.45;;;;;;;;;;5070243;28;20235;-51
2023/03/18 13:47:22;;;;;;;7.90;4.10;;;;;;;;;;5069221;28;20231;-53
2023/03/18 13:49:49;;;;;;;6.60;3.95;;;;;;;;;;5069960;28;20231;-53
2023/03/18 13:52:24;;;;;;;4.32;3.83;;;;;;;;;;5066377;27;20243;-52
2023/03/18 13:54:51;;;;;;;8.75;4.75;;;;;;;;;;5069357;28;20222;-51
2023/03/18 13:57:31;;;;;;;5.53;4.22;;;;;;;;;;5067248;28;20596;-50
2023/03/18 14:00:21;;;;;;;4.72;4.32;;;;;;;;;;5065069;28;20227;-51
2023/03/18 14:03:01;;;;;;;4.63;4.18;;;;;;;;;;5068700;28;20246;-51
2023/03/18 14:05:35;;;;;;;9.32;4.25;;;;;;;;;;5069217;28;20272;-51
2023/03/18 14:08:04;;;;;;;4.10;3.70;;;;;;;;;;5068528;28;20234;-51
2023/03/18 14:10:30;;;;;;;7.03;4.18;;;;;;;;;;5072249;28;20238;-51
2023/03/18 14:13:17;;;;;;;4.40;3.45;;;;;;;;;;5072670;28;20235;-52
2023/03/18 14:15:45;;;;;;;9.80;4.30;;;;;;;;;;5073902;28;20231;-52
2023/03/18 14:18:19;;;;;;;5.40;3.45;;;;;;;;;;5064838;28;20292;-52
2023/03/18 14:20:46;;;;;;;4.63;3.90;;;;;;;;;;5068030;28;20231;-52
2023/03/18 14:23:27;;;;;;;7.05;5.47;;;;;;;;;;5073020;28;20322;-52
2023/03/18 14:26:00;;;;;;;5.85;5.00;;;;;;;;;;5068539;28;20227;-51
2023/03/18 14:28:28;;;;;;;4.72;3.78;;;;;;;;;;5063547;28;22872;-51
2023/03/18 14:30:59;;;;;;;8.77;4.80;;;;;;;;;;5066468;28;20238;-52
2023/03/18 14:33:33;;;;;;;7.88;5.32;;;;;;;;;;5062843;28;20245;-51
2023/03/18 14:36:01;;;;;;;8.32;5.15;;;;;;;;;;5066276;28;20261;-51
2023/03/18 14:38:31;;;;;;;5.18;4.47;;;;;;;;;;5069211;28;20232;-51
2023/03/18 14:40:58;;;;;;;6.25;4.07;;;;;;;;;;5064928;28;20231;-52
2023/03/18 14:43:27;;;;;;;4.70;4.15;;;;;;;;;;5062993;28;20235;-51
2023/03/18 14:45:56;;;;;;;5.18;4.25;;;;;;;;;;5066854;28;20247;-51
2023/03/18 14:48:28;;;;;;;5.97;3.75;;;;;;;;;;5063978;28;20231;-53
2023/03/18 14:50:58;;;;;;;11.93;4.55;;;;;;;;;;5065651;28;20274;-51
2023/03/18 14:53:27;;;;;;;6.63;4.05;;;;;;;;;;5063307;28;20266;-52